createdAt,value
2018-07-07T00:00:08.304Z,92.60
2018-07-07T00:02:42.267Z,93.10
2018-07-07T00:05:16.194Z,93.20
2018-07-07T00:07:50.037Z,93.30
2018-07-07T00:10:23.935Z,93.90
2018-07-07T00:12:57.741Z,94.30
2018-07-07T00:15:31.683Z,94.10
2018-07-07T00:20:38.696Z,94.60
2018-07-07T00:23:12.374Z,94.40
2018-07-07T00:25:46.169Z,94.60
2018-07-07T00:28:19.966Z,94.70
2018-07-07T00:30:53.707Z,95.30
2018-07-07T00:33:27.561Z,95.40
2018-07-07T00:36:01.398Z,96.20
2018-07-07T00:38:35.212Z,96.20
2018-07-07T00:41:09.119Z,96.30
2018-07-07T00:43:42.936Z,96.50
2018-07-07T00:46:16.733Z,96.50
2018-07-07T00:48:50.526Z,96.50
2018-07-07T00:51:24.286Z,97.40
2018-07-07T00:53:58.107Z,97.00
2018-07-07T00:56:31.920Z,97.40
2018-07-07T00:59:05.860Z,97.70
2018-07-07T01:01:39.796Z,98.20
2018-07-07T01:04:13.700Z,98.30
2018-07-07T01:06:48.185Z,98.50
2018-07-07T01:09:21.964Z,98.90
2018-07-07T01:11:55.804Z,99.40
2018-07-07T01:14:29.651Z,99.60
2018-07-07T01:17:03.564Z,99.70
2018-07-07T01:19:37.410Z,99.80
2018-07-07T01:22:14.575Z,99.60
2018-07-07T01:24:48.400Z,99.90
2018-07-07T01:27:22.282Z,99.90
2018-07-07T01:29:56.098Z,99.90
2018-07-07T01:32:29.937Z,99.90
2018-07-07T01:35:03.691Z,99.90
2018-07-07T01:37:37.585Z,99.90
2018-07-07T01:40:11.370Z,99.90
2018-07-07T01:42:45.163Z,99.90
2018-07-07T01:45:18.968Z,99.90
2018-07-07T01:47:52.798Z,99.90
2018-07-07T01:50:26.559Z,99.90
2018-07-07T01:53:00.425Z,99.90
2018-07-07T01:55:34.255Z,99.90
2018-07-07T01:58:08.329Z,99.90
2018-07-07T02:00:42.215Z,99.90
2018-07-07T02:03:15.923Z,99.90
2018-07-07T02:05:49.677Z,99.90
2018-07-07T02:08:23.453Z,99.90
2018-07-07T02:10:57.253Z,99.90
2018-07-07T02:13:31.054Z,99.90
2018-07-07T02:16:04.808Z,99.90
2018-07-07T02:18:38.660Z,99.90
2018-07-07T02:21:12.409Z,99.90
2018-07-07T02:23:46.982Z,99.90
2018-07-07T02:26:20.758Z,99.90
2018-07-07T02:28:54.598Z,99.90
2018-07-07T02:31:28.404Z,99.90
2018-07-07T02:34:02.134Z,99.90
2018-07-07T02:36:35.985Z,99.90
2018-07-07T02:39:10.105Z,99.90
2018-07-07T02:41:43.888Z,99.90
2018-07-07T02:44:28.737Z,99.90
2018-07-07T02:47:02.628Z,99.90
2018-07-07T02:49:37.029Z,99.90
2018-07-07T02:52:10.818Z,99.90
2018-07-07T02:54:46.367Z,99.90
2018-07-07T02:57:20.240Z,99.90
2018-07-07T02:59:56.303Z,99.90
2018-07-07T03:02:31.959Z,99.90
2018-07-07T03:05:07.087Z,99.90
2018-07-07T03:07:42.190Z,99.90
2018-07-07T03:10:17.838Z,99.90
2018-07-07T03:12:52.422Z,99.90
2018-07-07T03:15:27.016Z,99.90
2018-07-07T03:18:00.851Z,99.90
2018-07-07T03:20:34.634Z,99.90
2018-07-07T03:23:08.525Z,99.90
2018-07-07T03:25:42.431Z,99.90
2018-07-07T03:28:16.315Z,99.90
2018-07-07T03:30:50.093Z,99.90
2018-07-07T03:33:23.965Z,99.90
2018-07-07T03:35:57.736Z,99.90
2018-07-07T03:38:31.499Z,99.90
2018-07-07T03:41:05.295Z,99.90
2018-07-07T03:43:39.107Z,99.90
2018-07-07T03:46:12.895Z,99.90
2018-07-07T03:48:46.725Z,99.90
2018-07-07T03:51:20.571Z,99.90
2018-07-07T03:53:54.318Z,99.90
2018-07-07T03:56:28.088Z,99.90
2018-07-07T03:59:01.894Z,99.90
2018-07-07T04:01:35.721Z,99.90
2018-07-07T04:04:09.575Z,99.90
2018-07-07T04:06:43.371Z,99.90
2018-07-07T04:09:17.156Z,99.90
2018-07-07T04:11:50.867Z,99.90
2018-07-07T04:14:24.655Z,99.90
2018-07-07T04:16:58.600Z,99.90
2018-07-07T04:19:32.394Z,99.90
2018-07-07T04:22:07.149Z,99.90
2018-07-07T04:24:40.964Z,99.90
2018-07-07T04:27:14.770Z,99.90
2018-07-07T04:29:48.541Z,99.90
2018-07-07T04:32:22.296Z,99.90
2018-07-07T04:34:56.064Z,99.90
2018-07-07T04:37:29.872Z,99.90
2018-07-07T04:40:03.709Z,99.60
2018-07-07T04:42:37.539Z,99.40
2018-07-07T04:45:11.369Z,98.50
2018-07-07T04:47:45.122Z,97.60
2018-07-07T04:50:18.941Z,97.20
2018-07-07T04:52:52.681Z,96.10
2018-07-07T04:55:26.627Z,95.60
2018-07-07T04:58:00.501Z,95.00
2018-07-07T05:00:34.371Z,94.60
2018-07-07T05:03:08.402Z,94.00
2018-07-07T05:05:42.331Z,93.60
2018-07-07T05:08:16.151Z,93.50
2018-07-07T05:10:49.864Z,93.40
2018-07-07T05:13:23.659Z,92.90
2018-07-07T05:15:57.508Z,92.50
2018-07-07T05:18:31.536Z,92.00
2018-07-07T05:21:05.402Z,91.70
2018-07-07T05:23:39.264Z,91.60
2018-07-07T05:26:13.052Z,90.80
2018-07-07T05:28:46.864Z,90.70
2018-07-07T05:31:20.685Z,90.60
2018-07-07T05:33:54.480Z,90.40
2018-07-07T05:36:28.290Z,88.60
2018-07-07T05:39:02.210Z,89.20
2018-07-07T05:41:36.050Z,88.50
2018-07-07T05:44:09.888Z,88.30
2018-07-07T05:46:43.726Z,87.50
2018-07-07T05:49:17.532Z,87.40
2018-07-07T05:51:51.282Z,87.60
2018-07-07T05:54:25.892Z,87.90
2018-07-07T05:57:01.642Z,86.90
2018-07-07T05:59:35.628Z,84.80
2018-07-07T06:02:09.511Z,84.00
2018-07-07T06:04:43.331Z,84.10
2018-07-07T06:07:17.245Z,85.20
2018-07-07T06:09:51.185Z,84.50
2018-07-07T06:12:26.793Z,83.00
2018-07-07T06:15:01.926Z,82.20
2018-07-07T06:17:36.657Z,82.50
2018-07-07T06:20:10.576Z,82.30
2018-07-07T06:22:44.957Z,81.40
2018-07-07T06:25:20.432Z,81.40
2018-07-07T06:27:55.639Z,80.70
2018-07-07T06:30:29.589Z,80.00
2018-07-07T06:33:03.404Z,80.70
2018-07-07T06:35:38.102Z,80.50
2018-07-07T06:38:11.931Z,80.60
2018-07-07T06:40:46.659Z,79.70
2018-07-07T06:43:22.089Z,78.70
2018-07-07T06:45:57.013Z,78.10
2018-07-07T06:48:31.901Z,78.00
2018-07-07T06:51:06.081Z,77.50
2018-07-07T06:53:39.968Z,77.40
2018-07-07T06:56:13.762Z,77.20
2018-07-07T06:58:48.174Z,75.90
2018-07-07T07:01:21.982Z,76.10
2018-07-07T07:03:55.772Z,76.30
2018-07-07T07:06:29.624Z,75.60
2018-07-07T07:09:03.594Z,76.40
2018-07-07T07:11:37.462Z,74.70
2018-07-07T07:14:11.245Z,73.80
2018-07-07T07:16:45.074Z,75.00
2018-07-07T07:19:18.851Z,75.50
2018-07-07T07:21:52.727Z,74.20
2018-07-07T07:24:26.503Z,73.70
2018-07-07T07:27:00.273Z,73.90
2018-07-07T07:29:34.051Z,73.80
2018-07-07T07:32:07.945Z,70.20
2018-07-07T07:34:41.764Z,70.50
2018-07-07T07:37:15.729Z,70.60
2018-07-07T07:39:49.444Z,71.10
2018-07-07T07:42:23.143Z,70.70
2018-07-07T07:44:56.988Z,70.00
2018-07-07T07:47:30.776Z,69.80
2018-07-07T07:50:04.567Z,70.20
2018-07-07T07:52:38.307Z,69.20
2018-07-07T07:55:12.347Z,67.70
2018-07-07T07:57:46.194Z,67.20
2018-07-07T08:00:19.972Z,69.70
2018-07-07T08:02:53.720Z,68.50
2018-07-07T08:05:27.556Z,67.10
2018-07-07T08:08:01.310Z,66.60
2018-07-07T08:10:35.142Z,66.90
2018-07-07T08:13:08.961Z,67.20
2018-07-07T08:15:42.806Z,67.30
2018-07-07T08:18:16.592Z,66.60
2018-07-07T08:20:50.300Z,66.90
2018-07-07T08:23:24.234Z,65.40
2018-07-07T08:25:57.966Z,63.50
2018-07-07T08:28:31.886Z,64.50
2018-07-07T08:31:05.615Z,64.30
2018-07-07T08:33:39.447Z,65.20
2018-07-07T08:36:13.268Z,64.50
2018-07-07T08:38:47.129Z,65.40
2018-07-07T08:41:20.858Z,65.00
2018-07-07T08:43:54.918Z,63.50
2018-07-07T08:46:28.733Z,62.40
2018-07-07T08:49:02.486Z,63.40
2018-07-07T08:51:36.312Z,62.50
2018-07-07T08:54:10.219Z,60.70
2018-07-07T08:56:44.225Z,61.10
2018-07-07T08:59:18.090Z,60.60
2018-07-07T09:01:52.085Z,61.50
2018-07-07T09:04:25.869Z,60.60
2018-07-07T09:06:59.733Z,60.50
2018-07-07T09:09:33.572Z,60.90
2018-07-07T09:12:07.439Z,59.00
2018-07-07T09:14:41.183Z,58.00
2018-07-07T09:17:15.077Z,58.60
2018-07-07T09:19:48.845Z,58.50
2018-07-07T09:22:22.662Z,58.60
2018-07-07T09:24:56.487Z,59.40
2018-07-07T09:27:30.336Z,60.00
2018-07-07T09:30:04.502Z,60.90
2018-07-07T09:32:38.388Z,61.10
2018-07-07T09:35:12.162Z,60.20
2018-07-07T09:37:46.053Z,59.80
2018-07-07T09:40:19.828Z,60.30
2018-07-07T09:42:53.646Z,59.50
2018-07-07T09:45:27.348Z,59.30
2018-07-07T09:48:01.202Z,59.40
2018-07-07T09:50:34.935Z,60.10
2018-07-07T09:53:08.918Z,59.30
2018-07-07T09:55:42.762Z,59.60
2018-07-07T09:58:16.607Z,59.50
2018-07-07T10:00:50.532Z,59.50
2018-07-07T10:03:24.918Z,59.00
2018-07-07T10:05:58.640Z,58.80
2018-07-07T10:08:32.444Z,58.40
2018-07-07T10:11:06.144Z,57.80
2018-07-07T10:13:39.909Z,57.80
2018-07-07T10:16:13.670Z,58.00
2018-07-07T10:18:47.501Z,58.70
2018-07-07T10:21:21.310Z,58.40
2018-07-07T10:23:55.165Z,58.30
2018-07-07T10:26:28.929Z,57.90
2018-07-07T10:29:02.602Z,56.70
2018-07-07T10:31:36.376Z,56.60
2018-07-07T10:34:10.305Z,57.00
2018-07-07T10:36:44.081Z,57.00
2018-07-07T10:39:17.816Z,57.40
2018-07-07T10:41:51.599Z,57.70
2018-07-07T10:44:25.460Z,57.60
2018-07-07T10:46:59.186Z,56.60
2018-07-07T10:49:32.931Z,55.90
2018-07-07T10:52:06.870Z,56.00
2018-07-07T10:54:40.690Z,56.40
2018-07-07T10:57:14.596Z,56.50
2018-07-07T10:59:48.333Z,55.80
2018-07-07T11:02:22.264Z,56.60
2018-07-07T11:04:56.081Z,56.10
2018-07-07T11:07:29.910Z,56.30
2018-07-07T11:10:03.669Z,56.20
2018-07-07T11:12:37.486Z,56.80
2018-07-07T11:15:11.443Z,55.60
2018-07-07T11:17:45.428Z,55.50
2018-07-07T11:20:19.215Z,54.70
2018-07-07T11:22:53.117Z,55.00
2018-07-07T11:25:26.964Z,54.30
2018-07-07T11:30:34.186Z,53.90
2018-07-07T11:33:08.080Z,54.50
2018-07-07T11:35:41.809Z,55.30
2018-07-07T11:38:15.639Z,55.30
2018-07-07T11:40:49.478Z,54.60
2018-07-07T11:43:23.349Z,54.20
2018-07-07T11:45:57.303Z,54.70
2018-07-07T11:48:30.978Z,55.00
2018-07-07T11:51:04.752Z,55.20
2018-07-07T11:53:38.490Z,54.90
2018-07-07T11:56:12.308Z,54.70
2018-07-07T11:58:46.061Z,53.50
2018-07-07T12:01:19.834Z,52.70
2018-07-07T12:03:53.645Z,53.20
2018-07-07T12:06:27.414Z,53.60
2018-07-07T12:09:01.279Z,53.40
2018-07-07T12:11:35.020Z,53.60
2018-07-07T12:14:08.849Z,53.90
2018-07-07T12:16:42.676Z,53.90
2018-07-07T12:19:16.515Z,53.90
2018-07-07T12:21:50.322Z,52.60
2018-07-07T12:24:24.030Z,53.30
2018-07-07T12:26:57.815Z,53.50
2018-07-07T12:29:31.581Z,52.70
2018-07-07T12:32:05.410Z,52.90
2018-07-07T12:34:39.126Z,52.80
2018-07-07T12:37:12.867Z,52.50
2018-07-07T12:39:46.679Z,52.50
2018-07-07T12:42:20.615Z,52.60
2018-07-07T12:44:54.385Z,52.90
2018-07-07T12:47:28.195Z,52.50
2018-07-07T12:50:02.113Z,52.80
2018-07-07T12:52:35.864Z,53.10
2018-07-07T12:55:09.719Z,53.00
2018-07-07T12:57:43.496Z,51.70
2018-07-07T13:00:17.268Z,52.20
2018-07-07T13:02:51.198Z,51.80
2018-07-07T13:05:24.984Z,52.00
2018-07-07T13:07:58.712Z,52.20
2018-07-07T13:10:32.533Z,52.40
2018-07-07T13:13:06.299Z,51.10
2018-07-07T13:15:40.146Z,51.70
2018-07-07T13:18:13.891Z,51.50
2018-07-07T13:20:47.719Z,51.40
2018-07-07T13:23:21.521Z,51.10
2018-07-07T13:25:55.327Z,51.40
2018-07-07T13:28:29.089Z,51.00
2018-07-07T13:31:02.929Z,51.10
2018-07-07T13:33:36.715Z,51.20
2018-07-07T13:36:10.493Z,50.50
2018-07-07T13:38:44.296Z,51.10
2018-07-07T13:41:18.124Z,51.30
2018-07-07T13:43:52.117Z,52.20
2018-07-07T13:46:26.995Z,52.80
2018-07-07T13:49:01.037Z,52.60
2018-07-07T13:51:34.816Z,52.30
2018-07-07T13:54:08.855Z,52.80
2018-07-07T13:56:42.609Z,52.70
2018-07-07T13:59:16.513Z,53.20
2018-07-07T14:01:50.356Z,52.30
2018-07-07T14:04:24.320Z,52.80
2018-07-07T14:06:58.126Z,52.30
2018-07-07T14:09:32.027Z,52.30
2018-07-07T14:12:05.817Z,51.50
2018-07-07T14:14:39.734Z,51.40
2018-07-07T14:17:13.545Z,50.70
2018-07-07T14:19:47.410Z,50.90
2018-07-07T14:22:21.152Z,50.00
2018-07-07T14:24:55.009Z,50.50
2018-07-07T14:27:28.758Z,50.60
2018-07-07T14:30:02.529Z,50.10
2018-07-07T14:32:36.319Z,50.30
2018-07-07T14:35:10.131Z,50.40
2018-07-07T14:37:44.231Z,49.80
2018-07-07T14:40:18.099Z,50.10
2018-07-07T14:42:53.916Z,49.30
2018-07-07T14:45:29.270Z,49.20
2018-07-07T14:48:05.015Z,49.20
2018-07-07T14:50:38.822Z,49.60
2018-07-07T14:53:12.541Z,50.30
2018-07-07T14:55:46.385Z,50.50
2018-07-07T14:58:20.200Z,51.00
2018-07-07T15:00:54.112Z,50.30
2018-07-07T15:03:27.971Z,50.40
2018-07-07T15:06:01.775Z,49.00
2018-07-07T15:08:35.641Z,49.20
2018-07-07T15:11:10.356Z,49.20
2018-07-07T15:13:44.215Z,48.60
2018-07-07T15:16:18.218Z,49.10
2018-07-07T15:18:51.962Z,49.00
2018-07-07T15:21:25.856Z,48.50
2018-07-07T15:23:59.631Z,48.90
2018-07-07T15:26:33.423Z,48.90
2018-07-07T15:29:07.225Z,49.00
2018-07-07T15:31:40.971Z,49.40
2018-07-07T15:34:14.734Z,49.70
2018-07-07T15:36:48.486Z,50.40
2018-07-07T15:39:22.243Z,49.80
2018-07-07T15:41:56.019Z,49.40
2018-07-07T15:44:29.721Z,48.90
2018-07-07T15:47:03.462Z,48.70
2018-07-07T15:49:37.150Z,48.20
2018-07-07T15:52:10.959Z,48.10
2018-07-07T15:54:44.754Z,48.30
2018-07-07T15:57:18.597Z,48.60
2018-07-07T15:59:52.432Z,48.80
2018-07-07T16:02:26.291Z,48.50
2018-07-07T16:05:00.122Z,48.70
2018-07-07T16:07:33.884Z,50.00
2018-07-07T16:10:07.799Z,50.20
2018-07-07T16:12:41.616Z,50.00
2018-07-07T16:15:15.375Z,50.40
2018-07-07T16:17:49.172Z,50.40
2018-07-07T16:20:22.968Z,50.70
2018-07-07T16:22:56.688Z,51.40
2018-07-07T16:25:30.492Z,51.00
2018-07-07T16:28:04.316Z,51.00
2018-07-07T16:30:38.005Z,50.40
2018-07-07T16:33:11.830Z,50.90
2018-07-07T16:35:45.544Z,50.60
2018-07-07T16:38:19.303Z,50.90
2018-07-07T16:40:53.242Z,50.70
2018-07-07T16:46:00.257Z,52.20
2018-07-07T16:48:35.388Z,52.00
2018-07-07T16:51:09.412Z,52.00
2018-07-07T16:53:43.387Z,51.80
2018-07-07T16:56:19.559Z,51.50
2018-07-07T16:58:53.693Z,51.40
2018-07-07T17:01:28.533Z,51.30
2018-07-07T17:04:02.376Z,50.70
2018-07-07T17:06:36.629Z,50.10
2018-07-07T17:09:10.811Z,50.40
2018-07-07T17:11:44.933Z,50.90
2018-07-07T17:14:18.852Z,51.00
2018-07-07T17:16:53.062Z,51.40
2018-07-07T17:19:27.911Z,51.70
2018-07-07T17:22:01.879Z,52.60
2018-07-07T17:24:35.808Z,52.50
2018-07-07T17:27:09.870Z,52.70
2018-07-07T17:29:43.636Z,52.60
2018-07-07T17:32:17.687Z,52.90
2018-07-07T17:34:51.521Z,53.00
2018-07-07T17:37:25.567Z,53.10
2018-07-07T17:39:59.342Z,53.50
2018-07-07T17:42:34.171Z,54.10
2018-07-07T17:45:08.110Z,55.20
2018-07-07T17:47:42.210Z,55.30
2018-07-07T17:50:17.232Z,55.50
2018-07-07T17:52:51.555Z,55.90
2018-07-07T17:55:26.587Z,56.70
2018-07-07T17:58:00.677Z,57.50
2018-07-07T18:00:34.605Z,58.00
2018-07-07T18:03:08.592Z,58.00
2018-07-07T18:05:42.883Z,58.70
2018-07-07T18:08:16.748Z,59.10
2018-07-07T18:10:50.522Z,58.00
2018-07-07T18:13:24.391Z,58.30
2018-07-07T18:15:58.179Z,59.60
2018-07-07T18:18:32.139Z,59.50
2018-07-07T18:21:06.032Z,59.90
2018-07-07T18:23:39.843Z,60.20
2018-07-07T18:26:13.737Z,60.30
2018-07-07T18:28:47.639Z,60.80
2018-07-07T18:31:21.423Z,61.20
2018-07-07T18:33:55.293Z,61.60
2018-07-07T18:36:29.057Z,61.60
2018-07-07T18:39:02.834Z,61.80
2018-07-07T18:41:36.658Z,61.70
2018-07-07T18:44:10.497Z,62.20
2018-07-07T18:46:44.470Z,62.30
2018-07-07T18:49:18.234Z,62.40
2018-07-07T18:51:52.616Z,62.90
2018-07-07T18:54:38.032Z,64.00
2018-07-07T18:57:42.045Z,63.40
2018-07-07T19:00:16.345Z,63.60
2018-07-07T19:02:50.188Z,64.30
2018-07-07T19:05:24.029Z,64.50
2018-07-07T19:07:57.953Z,65.70
2018-07-07T19:10:31.689Z,65.20
2018-07-07T19:13:05.662Z,65.60
2018-07-07T19:15:39.682Z,66.00
2018-07-07T19:18:13.546Z,65.90
2018-07-07T19:20:51.955Z,66.00
2018-07-07T19:23:30.462Z,66.70
2018-07-07T19:26:09.171Z,67.20
2018-07-07T19:28:43.357Z,67.80
2018-07-07T19:31:17.240Z,67.70
2018-07-07T19:33:55.776Z,67.90
2018-07-07T19:36:34.248Z,68.10
2018-07-07T19:39:08.262Z,68.00
2018-07-07T19:41:42.014Z,68.70
2018-07-07T19:44:15.893Z,68.80
2018-07-07T19:46:49.687Z,69.10
2018-07-07T19:49:23.528Z,69.30
2018-07-07T19:51:58.038Z,69.70
2018-07-07T19:54:33.041Z,70.00
2018-07-07T19:57:08.486Z,70.10
2018-07-07T19:59:44.064Z,70.40
2018-07-07T20:02:17.871Z,70.60
2018-07-07T20:04:51.684Z,70.90
2018-07-07T20:07:25.458Z,71.20
2018-07-07T20:09:59.820Z,71.30
2018-07-07T20:12:34.325Z,71.40
2018-07-07T20:15:09.565Z,71.80
2018-07-07T20:18:02.089Z,72.00
2018-07-07T20:20:42.255Z,72.20
2018-07-07T20:23:18.423Z,72.30
2018-07-07T20:25:57.027Z,72.60
2018-07-07T20:28:35.742Z,72.90
2018-07-07T20:31:10.028Z,72.90
2018-07-07T20:33:44.287Z,73.30
2018-07-07T20:36:18.090Z,73.60
2018-07-07T20:38:56.401Z,73.80
2018-07-07T20:41:30.622Z,73.90
2018-07-07T20:44:04.915Z,74.10
2018-07-07T20:46:39.080Z,74.70
2018-07-07T20:49:13.072Z,74.80
2018-07-07T20:51:46.909Z,75.20
2018-07-07T20:54:21.012Z,75.30
2018-07-07T20:56:54.849Z,75.90
2018-07-07T20:59:28.672Z,75.80
2018-07-07T21:02:02.473Z,75.90
2018-07-07T21:04:36.244Z,75.90
2018-07-07T21:07:10.046Z,75.80
2018-07-07T21:09:44.156Z,76.10
2018-07-07T21:12:17.978Z,76.30
2018-07-07T21:14:51.827Z,76.20
2018-07-07T21:17:25.606Z,76.30
2018-07-07T21:19:59.608Z,76.50
2018-07-07T21:22:33.532Z,76.70
2018-07-07T21:25:07.561Z,77.00
2018-07-07T21:27:41.356Z,76.90
2018-07-07T21:30:15.205Z,77.00
2018-07-07T21:32:48.986Z,77.00
2018-07-07T21:35:23.277Z,76.90
2018-07-07T21:37:57.315Z,76.90
2018-07-07T21:40:31.489Z,77.20
2018-07-07T21:43:05.278Z,77.50
2018-07-07T21:45:39.294Z,77.90
2018-07-07T21:48:13.047Z,78.10
2018-07-07T21:50:46.949Z,78.30
2018-07-07T21:53:20.736Z,78.50
2018-07-07T21:55:54.724Z,78.70
2018-07-07T21:58:29.329Z,78.80
2018-07-07T22:02:04.591Z,78.80
2018-07-07T22:04:43.073Z,79.00
2018-07-07T22:07:21.778Z,79.10
2018-07-07T22:09:57.282Z,79.50
2018-07-07T22:12:32.642Z,79.70
2018-07-07T22:15:06.663Z,80.00
2018-07-07T22:17:41.961Z,80.10
2018-07-07T22:20:24.615Z,80.10
2018-07-07T22:22:58.913Z,80.80
2018-07-07T22:25:34.546Z,80.70
2018-07-07T22:28:08.386Z,81.10
2018-07-07T22:30:42.233Z,81.30
2018-07-07T22:33:22.165Z,81.60
2018-07-07T22:36:00.987Z,82.00
2018-07-07T22:38:39.491Z,81.90
2018-07-07T22:41:13.395Z,82.10
2018-07-07T22:43:47.159Z,83.00
2018-07-07T22:46:20.987Z,82.20
2018-07-07T22:48:54.869Z,81.60
2018-07-07T22:51:29.059Z,82.40
2018-07-07T22:54:02.842Z,82.50
2018-07-07T22:56:36.592Z,82.80
2018-07-07T22:59:10.607Z,82.90
2018-07-07T23:01:44.519Z,83.10
2018-07-07T23:04:18.316Z,83.00
2018-07-07T23:06:52.147Z,83.70
2018-07-07T23:09:26.041Z,84.40
2018-07-07T23:11:59.944Z,84.10
2018-07-07T23:14:33.731Z,84.50
2018-07-07T23:17:07.628Z,84.40
2018-07-07T23:19:41.469Z,84.70
2018-07-07T23:22:22.340Z,84.80
2018-07-07T23:24:56.987Z,85.30
2018-07-07T23:27:30.904Z,85.50
2018-07-07T23:30:04.749Z,85.60
2018-07-07T23:32:38.816Z,85.60
2018-07-07T23:35:13.074Z,85.80
2018-07-07T23:37:46.956Z,85.50
2018-07-07T23:40:20.849Z,85.90
2018-07-07T23:42:54.694Z,86.10
2018-07-07T23:45:28.615Z,86.20
2018-07-07T23:48:02.489Z,86.30
2018-07-07T23:50:36.398Z,86.50
2018-07-07T23:53:10.244Z,86.40
2018-07-07T23:55:44.105Z,86.50
2018-07-07T23:58:17.989Z,86.60
